createdAt,value
2023-01-25T00:02:19.062Z,83.89
2023-01-25T00:04:45.554Z,83.75
2023-01-25T00:07:12.057Z,83.67
2023-01-25T00:09:38.483Z,83.79
2023-01-25T00:12:05.113Z,83.46
2023-01-25T00:14:31.712Z,83.42
2023-01-25T00:16:58.163Z,83.58
2023-01-25T00:19:24.590Z,83.62
2023-01-25T00:21:51.030Z,83.27
2023-01-25T00:24:17.802Z,83.29
2023-01-25T00:26:44.316Z,82.89
2023-01-25T00:29:14.278Z,83.01
2023-01-25T00:31:42.290Z,83.16
2023-01-25T00:34:27.323Z,83.53
2023-01-25T00:36:57.196Z,83.64
2023-01-25T00:39:23.801Z,83.95
2023-01-25T00:41:50.312Z,84.00
2023-01-25T00:44:16.764Z,84.38
2023-01-25T00:46:43.188Z,84.43
2023-01-25T00:49:25.713Z,84.37
2023-01-25T00:51:52.407Z,83.10
2023-01-25T00:54:19.007Z,82.96
2023-01-25T00:56:45.676Z,83.04
2023-01-25T00:59:12.481Z,83.42
2023-01-25T01:01:38.997Z,83.95
2023-01-25T01:04:06.723Z,84.21
2023-01-25T01:06:35.424Z,84.25
2023-01-25T01:09:01.959Z,84.31
2023-01-25T01:11:28.485Z,83.85
2023-01-25T01:13:56.740Z,84.23
2023-01-25T01:16:23.293Z,84.25
2023-01-25T01:18:51.052Z,84.18
2023-01-25T01:21:17.531Z,84.39
2023-01-25T01:23:44.178Z,84.98
2023-01-25T01:26:12.178Z,84.65
2023-01-25T01:28:41.653Z,85.06
2023-01-25T01:31:09.235Z,84.84
2023-01-25T01:33:36.267Z,84.80
2023-01-25T01:36:13.045Z,84.93
2023-01-25T01:38:39.558Z,84.99
2023-01-25T01:41:06.116Z,85.11
2023-01-25T01:43:32.563Z,85.40
2023-01-25T01:46:00.681Z,85.27
2023-01-25T01:48:30.592Z,85.20
2023-01-25T01:50:57.990Z,84.26
2023-01-25T01:53:24.567Z,84.50
2023-01-25T01:55:51.935Z,84.19
2023-01-25T01:58:18.392Z,84.07
2023-01-25T02:00:45.053Z,84.17
2023-01-25T02:03:11.520Z,84.28
2023-01-25T02:05:42.935Z,84.47
2023-01-25T02:08:09.834Z,84.46
2023-01-25T02:10:36.275Z,84.52
2023-01-25T02:13:03.625Z,84.65
2023-01-25T02:15:33.638Z,84.18
2023-01-25T02:18:00.137Z,83.93
2023-01-25T02:20:28.535Z,84.40
2023-01-25T02:23:13.777Z,84.34
2023-01-25T02:25:41.425Z,84.19
2023-01-25T02:28:14.269Z,83.89
2023-01-25T02:30:41.470Z,84.44
2023-01-25T02:33:08.134Z,84.41
2023-01-25T02:35:42.178Z,83.77
2023-01-25T02:38:09.419Z,84.11
2023-01-25T02:40:36.972Z,84.32
2023-01-25T02:43:03.396Z,84.16
2023-01-25T02:45:29.841Z,84.26
2023-01-25T02:47:56.271Z,84.15
2023-01-25T02:50:22.811Z,84.40
2023-01-25T02:52:49.271Z,84.72
2023-01-25T02:55:15.725Z,84.44
2023-01-25T02:57:42.174Z,84.33
2023-01-25T03:00:09.016Z,84.36
2023-01-25T03:02:35.518Z,84.46
2023-01-25T03:05:02.018Z,84.85
2023-01-25T03:07:28.636Z,84.34
2023-01-25T03:09:55.127Z,84.11
2023-01-25T03:12:21.562Z,83.90
2023-01-25T03:14:48.010Z,83.76
2023-01-25T03:17:14.442Z,83.72
2023-01-25T03:19:40.922Z,83.79
2023-01-25T03:22:07.314Z,83.27
2023-01-25T03:24:33.770Z,83.44
2023-01-25T03:27:14.148Z,83.04
2023-01-25T03:29:41.581Z,83.02
2023-01-25T03:32:08.265Z,83.07
2023-01-25T03:34:34.761Z,83.53
2023-01-25T03:37:01.216Z,83.54
2023-01-25T03:39:28.098Z,83.69
2023-01-25T03:41:54.571Z,84.20
2023-01-25T03:44:55.172Z,84.49
2023-01-25T03:47:21.665Z,83.90
2023-01-25T03:49:48.180Z,83.67
2023-01-25T03:52:14.626Z,83.40
2023-01-25T03:54:41.142Z,83.27
2023-01-25T03:57:07.565Z,83.66
2023-01-25T03:59:34.051Z,83.34
2023-01-25T04:02:00.615Z,83.58
2023-01-25T04:04:27.069Z,83.65
2023-01-25T04:06:53.754Z,83.79
2023-01-25T04:09:20.323Z,84.02
2023-01-25T04:11:49.090Z,83.75
2023-01-25T04:14:15.509Z,83.49
2023-01-25T04:16:42.449Z,83.36
2023-01-25T04:19:08.926Z,83.46
2023-01-25T04:21:35.405Z,83.62
2023-01-25T04:24:01.920Z,83.59
2023-01-25T04:26:28.436Z,83.80
2023-01-25T04:28:54.904Z,84.10
2023-01-25T04:31:21.493Z,84.09
2023-01-25T04:33:50.064Z,84.31
2023-01-25T04:36:17.022Z,84.37
2023-01-25T04:38:43.501Z,84.46
2023-01-25T04:41:09.946Z,84.70
2023-01-25T04:43:36.392Z,84.49
2023-01-25T04:46:03.141Z,83.88
2023-01-25T04:48:29.937Z,83.58
2023-01-25T04:50:56.410Z,83.31
2023-01-25T04:53:23.072Z,82.44
2023-01-25T04:55:54.839Z,81.99
2023-01-25T04:58:21.932Z,81.80
2023-01-25T05:00:48.834Z,81.95
2023-01-25T05:03:18.232Z,82.24
2023-01-25T05:05:48.002Z,82.49
2023-01-25T05:08:14.499Z,82.75
2023-01-25T05:10:41.057Z,82.81
2023-01-25T05:13:07.492Z,82.85
2023-01-25T05:15:33.948Z,83.01
2023-01-25T05:18:00.415Z,83.03
2023-01-25T05:20:26.908Z,82.53
2023-01-25T05:22:53.389Z,82.85
2023-01-25T05:25:38.422Z,82.77
2023-01-25T05:28:06.092Z,82.92
2023-01-25T05:30:32.724Z,83.05
2023-01-25T05:32:59.267Z,83.37
2023-01-25T05:35:25.850Z,83.67
2023-01-25T05:37:56.045Z,83.64
2023-01-25T05:40:22.514Z,83.28
2023-01-25T05:42:58.732Z,83.48
2023-01-25T05:45:25.413Z,83.28
2023-01-25T05:47:55.506Z,83.49
2023-01-25T05:50:22.216Z,83.39
2023-01-25T05:52:48.778Z,83.45
2023-01-25T05:55:15.935Z,83.41
2023-01-25T05:57:42.760Z,83.46
2023-01-25T06:00:09.598Z,83.93
2023-01-25T06:02:37.150Z,83.97
2023-01-25T06:05:04.504Z,83.65
2023-01-25T06:07:34.966Z,83.81
2023-01-25T06:10:01.724Z,83.52
2023-01-25T06:12:29.490Z,84.04
2023-01-25T06:15:04.948Z,83.54
2023-01-25T06:17:31.382Z,83.52
2023-01-25T06:19:59.027Z,83.56
2023-01-25T06:22:25.592Z,83.29
2023-01-25T06:24:52.067Z,83.19
2023-01-25T06:27:18.524Z,82.26
2023-01-25T06:29:44.980Z,82.17
2023-01-25T06:32:11.484Z,82.02
2023-01-25T06:34:38.175Z,82.02
2023-01-25T06:37:04.609Z,82.61
2023-01-25T06:39:31.116Z,83.04
2023-01-25T06:41:57.548Z,83.45
2023-01-25T06:44:23.968Z,83.63
2023-01-25T06:46:50.446Z,84.07
2023-01-25T06:49:16.932Z,83.93
2023-01-25T06:51:43.386Z,84.15
2023-01-25T06:54:09.872Z,83.55
2023-01-25T06:56:36.427Z,83.41
2023-01-25T06:59:03.010Z,83.27
2023-01-25T07:01:30.585Z,83.74
2023-01-25T07:03:57.694Z,84.04
2023-01-25T07:06:24.415Z,84.06
2023-01-25T07:08:50.942Z,84.17
2023-01-25T07:11:19.075Z,84.47
2023-01-25T07:13:45.951Z,84.29
2023-01-25T07:16:13.221Z,84.46
2023-01-25T07:18:40.498Z,84.35
2023-01-25T07:21:07.921Z,84.41
2023-01-25T07:23:34.727Z,83.74
2023-01-25T07:26:01.351Z,83.48
2023-01-25T07:28:27.846Z,83.86
2023-01-25T07:30:54.265Z,83.10
2023-01-25T07:33:20.733Z,83.23
2023-01-25T07:35:48.316Z,83.36
2023-01-25T07:38:14.992Z,83.44
2023-01-25T07:40:41.647Z,83.70
2023-01-25T07:43:08.089Z,83.71
2023-01-25T07:45:34.572Z,83.31
2023-01-25T07:48:01.436Z,83.71
2023-01-25T07:50:32.067Z,83.10
2023-01-25T07:52:58.816Z,82.33
2023-01-25T07:55:25.373Z,82.08
2023-01-25T07:57:54.640Z,82.15
2023-01-25T08:00:22.510Z,82.28
2023-01-25T08:02:50.919Z,82.33
2023-01-25T08:05:17.365Z,82.09
2023-01-25T08:07:43.813Z,81.96
2023-01-25T08:10:10.540Z,81.77
2023-01-25T08:12:38.014Z,81.97
2023-01-25T08:15:04.893Z,82.40
2023-01-25T08:17:34.493Z,82.00
2023-01-25T08:20:01.686Z,81.66
2023-01-25T08:22:28.507Z,81.15
2023-01-25T08:24:55.040Z,81.29
2023-01-25T08:27:21.579Z,81.45
2023-01-25T08:29:48.265Z,81.39
2023-01-25T08:32:16.420Z,81.08
2023-01-25T08:34:42.864Z,81.13
2023-01-25T08:37:09.329Z,81.27
2023-01-25T08:39:35.812Z,81.53
2023-01-25T08:42:02.490Z,81.85
2023-01-25T08:44:28.972Z,81.71
2023-01-25T08:46:55.517Z,81.40
2023-01-25T08:49:21.993Z,81.00
2023-01-25T08:51:50.586Z,80.67
2023-01-25T08:54:17.125Z,80.76
2023-01-25T08:56:43.624Z,80.31
2023-01-25T08:59:13.178Z,80.11
2023-01-25T09:01:39.773Z,80.14
2023-01-25T09:04:06.257Z,80.45
2023-01-25T09:06:32.929Z,80.75
2023-01-25T09:09:00.281Z,80.65
2023-01-25T09:11:26.843Z,80.49
2023-01-25T09:13:53.416Z,80.81
2023-01-25T09:16:26.631Z,80.79
2023-01-25T09:18:53.147Z,80.89
2023-01-25T09:21:19.863Z,80.15
2023-01-25T09:23:51.209Z,80.11
2023-01-25T09:26:31.541Z,80.44
2023-01-25T09:28:58.698Z,81.00
2023-01-25T09:31:25.771Z,80.87
2023-01-25T09:33:53.100Z,80.68
2023-01-25T09:36:19.735Z,80.83
2023-01-25T09:38:46.620Z,81.07
2023-01-25T09:41:22.394Z,80.26
2023-01-25T09:43:56.756Z,78.74
2023-01-25T09:46:29.327Z,78.73
2023-01-25T09:49:07.258Z,79.06
2023-01-25T09:51:38.388Z,78.54
2023-01-25T09:54:04.843Z,78.31
2023-01-25T09:56:33.337Z,78.20
2023-01-25T09:59:09.596Z,77.51
2023-01-25T10:01:44.718Z,77.64
2023-01-25T10:04:13.389Z,76.51
2023-01-25T10:06:40.809Z,76.85
2023-01-25T10:09:19.990Z,77.52
2023-01-25T10:11:47.837Z,77.65
2023-01-25T10:14:17.945Z,78.10
2023-01-25T10:16:47.387Z,78.30
2023-01-25T10:19:30.119Z,78.31
2023-01-25T10:21:57.874Z,78.93
2023-01-25T10:24:32.012Z,78.71
2023-01-25T10:27:21.885Z,78.06
2023-01-25T10:29:48.612Z,77.96
2023-01-25T10:32:28.418Z,77.99
2023-01-25T10:35:08.740Z,78.30
2023-01-25T10:37:35.664Z,78.60
2023-01-25T10:40:04.222Z,78.50
2023-01-25T10:42:31.901Z,78.38
2023-01-25T10:44:58.385Z,78.69
2023-01-25T10:47:26.181Z,78.67
2023-01-25T10:49:54.479Z,78.52
2023-01-25T10:52:31.209Z,78.95
2023-01-25T10:55:07.388Z,78.58
2023-01-25T10:57:34.138Z,78.77
2023-01-25T11:00:00.710Z,79.04
2023-01-25T11:02:36.356Z,79.02
2023-01-25T11:05:21.621Z,79.13
2023-01-25T11:07:48.170Z,77.51
2023-01-25T11:10:30.133Z,77.40
2023-01-25T11:13:14.762Z,77.52
2023-01-25T11:15:41.476Z,77.54
2023-01-25T11:18:12.271Z,77.20
2023-01-25T11:20:38.763Z,77.28
2023-01-25T11:23:09.971Z,77.55
2023-01-25T11:25:36.513Z,77.75
2023-01-25T11:28:29.296Z,77.97
2023-01-25T11:30:55.816Z,77.92
2023-01-25T11:33:22.676Z,78.19
2023-01-25T11:35:52.168Z,77.15
2023-01-25T11:38:19.592Z,76.88
2023-01-25T11:40:50.086Z,77.16
2023-01-25T11:43:16.514Z,77.26
2023-01-25T11:45:42.962Z,77.36
2023-01-25T11:48:15.548Z,77.96
2023-01-25T11:50:47.175Z,78.25
2023-01-25T11:53:33.762Z,78.71
2023-01-25T11:56:09.468Z,78.00
2023-01-25T11:58:39.269Z,77.62
2023-01-25T12:01:08.561Z,78.16
2023-01-25T12:03:41.337Z,78.00
2023-01-25T12:06:11.109Z,78.40
2023-01-25T12:08:47.097Z,78.28
2023-01-25T12:11:19.771Z,78.69
2023-01-25T12:13:48.326Z,78.43
2023-01-25T12:16:33.643Z,78.44
2023-01-25T12:19:07.095Z,78.87
2023-01-25T12:21:41.315Z,79.13
2023-01-25T12:24:13.983Z,79.20
2023-01-25T12:26:50.339Z,78.83
2023-01-25T12:29:19.884Z,78.84
2023-01-25T12:31:48.699Z,78.76
2023-01-25T12:34:16.787Z,79.16
2023-01-25T12:36:44.138Z,79.18
2023-01-25T12:39:15.429Z,79.38
2023-01-25T12:42:04.657Z,79.39
2023-01-25T12:44:32.020Z,79.07
2023-01-25T12:47:21.927Z,79.63
2023-01-25T12:50:02.558Z,79.81
2023-01-25T12:52:33.188Z,79.84
2023-01-25T12:55:04.006Z,80.08
2023-01-25T12:57:39.215Z,80.13
2023-01-25T13:00:08.002Z,79.90
2023-01-25T13:02:53.410Z,79.32
2023-01-25T13:05:28.565Z,78.92
2023-01-25T13:08:06.802Z,78.71
2023-01-25T13:10:38.569Z,79.04
2023-01-25T13:13:18.453Z,79.07
2023-01-25T13:15:53.335Z,79.14
2023-01-25T13:18:29.027Z,78.98
2023-01-25T13:20:56.113Z,79.70
2023-01-25T13:23:32.823Z,79.98
2023-01-25T13:26:31.583Z,79.97
2023-01-25T13:28:59.625Z,80.40
2023-01-25T13:31:50.920Z,80.56
2023-01-25T13:37:46.295Z,79.71
2023-01-25T13:40:32.358Z,79.62
2023-01-25T13:43:19.107Z,79.42
2023-01-25T13:45:46.100Z,79.08
2023-01-25T13:48:13.029Z,78.91
2023-01-25T13:50:43.204Z,78.76
2023-01-25T13:53:15.832Z,79.16
2023-01-25T13:55:43.201Z,79.45
2023-01-25T13:58:10.519Z,79.71
2023-01-25T14:00:37.472Z,79.43
2023-01-25T14:03:04.988Z,79.08
2023-01-25T14:05:31.398Z,79.14
2023-01-25T14:07:57.842Z,79.51
2023-01-25T14:10:26.336Z,79.13
2023-01-25T14:12:53.049Z,79.95
2023-01-25T14:15:26.375Z,79.87
2023-01-25T14:18:05.157Z,79.87
2023-01-25T14:20:31.651Z,80.66
2023-01-25T14:22:58.071Z,80.74
2023-01-25T14:25:25.833Z,80.82
2023-01-25T14:27:56.259Z,80.78
2023-01-25T14:30:23.817Z,80.77
2023-01-25T14:32:50.751Z,80.84
2023-01-25T14:35:42.547Z,81.38
2023-01-25T14:38:19.162Z,80.72
2023-01-25T14:40:45.922Z,79.82
2023-01-25T14:43:12.350Z,79.95
2023-01-25T14:45:38.868Z,79.96
2023-01-25T14:48:05.426Z,80.20
2023-01-25T14:50:38.727Z,80.33
2023-01-25T14:53:16.530Z,80.48
2023-01-25T14:55:46.756Z,80.63
2023-01-25T14:58:16.114Z,80.85
2023-01-25T15:00:42.622Z,80.58
2023-01-25T15:03:13.822Z,80.45
2023-01-25T15:05:44.309Z,80.65
2023-01-25T15:08:12.251Z,81.63
2023-01-25T15:14:14.759Z,81.49
2023-01-25T15:16:42.436Z,81.91
2023-01-25T15:19:41.609Z,81.76
2023-01-25T15:22:08.112Z,81.69
2023-01-25T15:24:34.561Z,81.89
2023-01-25T15:27:01.003Z,82.28
2023-01-25T15:29:27.506Z,81.75
2023-01-25T15:31:54.816Z,82.36
2023-01-25T15:34:22.142Z,81.84
2023-01-25T15:36:48.637Z,82.03
2023-01-25T15:39:15.915Z,81.72
2023-01-25T15:41:42.406Z,81.54
2023-01-25T15:44:08.917Z,81.11
2023-01-25T15:46:35.439Z,80.92
2023-01-25T15:49:02.671Z,80.73
2023-01-25T15:51:34.622Z,81.34
2023-01-25T15:54:02.102Z,81.40
2023-01-25T15:56:29.252Z,81.35
2023-01-25T15:58:57.349Z,81.56
2023-01-25T16:01:25.313Z,81.33
2023-01-25T16:03:51.906Z,81.68
2023-01-25T16:06:18.548Z,81.94
2023-01-25T16:08:45.019Z,81.61
2023-01-25T16:11:11.446Z,81.63
2023-01-25T16:13:37.892Z,81.76
2023-01-25T16:16:05.842Z,81.38
2023-01-25T16:18:32.776Z,81.46
2023-01-25T16:20:59.249Z,80.98
2023-01-25T16:23:25.839Z,81.79
2023-01-25T16:25:52.324Z,81.09
2023-01-25T16:28:18.925Z,80.84
2023-01-25T16:30:45.644Z,81.30
2023-01-25T16:33:12.218Z,81.21
2023-01-25T16:35:38.701Z,81.08
2023-01-25T16:38:05.259Z,81.23
2023-01-25T16:40:36.740Z,80.99
2023-01-25T16:43:04.511Z,80.82
2023-01-25T16:45:31.534Z,80.90
2023-01-25T16:47:57.994Z,80.95
2023-01-25T16:50:24.694Z,80.98
2023-01-25T16:52:51.653Z,80.63
2023-01-25T16:55:18.663Z,80.63
2023-01-25T16:57:46.007Z,81.06
2023-01-25T17:00:13.047Z,80.67
2023-01-25T17:02:41.916Z,81.04
2023-01-25T17:05:13.436Z,81.18
2023-01-25T17:07:39.949Z,81.09
2023-01-25T17:10:08.438Z,81.23
2023-01-25T17:12:35.177Z,81.15
2023-01-25T17:15:01.881Z,81.33
2023-01-25T17:17:30.297Z,81.49
2023-01-25T17:19:56.927Z,81.46
2023-01-25T17:22:23.451Z,81.21
2023-01-25T17:24:49.912Z,82.05
2023-01-25T17:27:17.465Z,81.81
2023-01-25T17:29:43.960Z,82.03
2023-01-25T17:32:10.464Z,81.55
2023-01-25T17:34:37.079Z,81.90
2023-01-25T17:37:03.866Z,81.94
2023-01-25T17:39:30.956Z,81.76
2023-01-25T17:41:57.461Z,81.63
2023-01-25T17:44:26.012Z,81.74
2023-01-25T17:46:56.293Z,81.23
2023-01-25T17:49:23.684Z,81.48
2023-01-25T17:51:50.233Z,81.32
2023-01-25T17:54:16.804Z,81.27
2023-01-25T17:56:43.295Z,81.26
2023-01-25T17:59:11.551Z,81.17
2023-01-25T18:01:38.412Z,81.40
2023-01-25T18:04:06.884Z,81.19
2023-01-25T18:06:33.422Z,80.68
2023-01-25T18:09:00.791Z,81.27
2023-01-25T18:11:28.373Z,80.73
2023-01-25T18:13:55.957Z,80.99
2023-01-25T18:16:24.086Z,81.42
2023-01-25T18:18:51.593Z,81.17
2023-01-25T18:21:24.480Z,81.33
2023-01-25T18:23:52.177Z,81.38
2023-01-25T18:26:26.177Z,81.30
2023-01-25T18:29:19.964Z,81.20
2023-01-25T18:31:48.298Z,81.49
2023-01-25T18:34:14.834Z,81.51
2023-01-25T18:36:41.488Z,81.68
2023-01-25T18:39:08.776Z,81.92
2023-01-25T18:41:35.266Z,81.92
2023-01-25T18:44:01.737Z,82.03
2023-01-25T18:46:28.464Z,81.82
2023-01-25T18:48:54.959Z,81.75
2023-01-25T18:51:23.231Z,82.11
2023-01-25T18:53:51.134Z,81.54
2023-01-25T18:56:18.481Z,82.05
2023-01-25T18:58:45.333Z,82.19
2023-01-25T19:01:15.875Z,81.75
2023-01-25T19:03:42.700Z,81.68
2023-01-25T19:06:09.334Z,81.74
2023-01-25T19:08:40.717Z,81.82
2023-01-25T19:11:10.328Z,81.46
2023-01-25T19:13:37.190Z,81.96
2023-01-25T19:16:04.737Z,81.66
2023-01-25T19:18:32.111Z,81.87
2023-01-25T19:20:58.641Z,82.38
2023-01-25T19:23:25.324Z,82.19
2023-01-25T19:25:55.156Z,82.19
2023-01-25T19:28:22.020Z,81.80
2023-01-25T19:30:48.694Z,81.97
2023-01-25T19:33:15.343Z,82.24
2023-01-25T19:35:41.861Z,82.16
2023-01-25T19:38:08.326Z,82.43
2023-01-25T19:40:34.972Z,82.88
2023-01-25T19:43:01.820Z,83.01
2023-01-25T19:45:28.608Z,82.75
2023-01-25T19:47:55.247Z,83.05
2023-01-25T19:50:22.274Z,82.97
2023-01-25T19:52:49.004Z,83.33
2023-01-25T19:55:15.516Z,82.87
2023-01-25T19:57:41.972Z,82.81
2023-01-25T20:00:08.799Z,83.45
2023-01-25T20:02:35.309Z,83.05
2023-01-25T20:05:01.804Z,82.93
2023-01-25T20:07:28.259Z,83.02
2023-01-25T20:09:54.964Z,83.13
2023-01-25T20:12:21.388Z,83.07
2023-01-25T20:14:47.857Z,83.32
2023-01-25T20:17:14.313Z,82.76
2023-01-25T20:19:40.771Z,83.14
2023-01-25T20:22:07.237Z,83.18
2023-01-25T20:24:33.679Z,82.80
2023-01-25T20:27:00.130Z,82.59
2023-01-25T20:29:28.691Z,82.68
2023-01-25T20:31:55.376Z,82.19
2023-01-25T20:34:22.274Z,82.38
2023-01-25T20:36:49.141Z,82.64
2023-01-25T20:39:19.623Z,82.67
2023-01-25T20:41:46.305Z,82.88
2023-01-25T20:44:13.255Z,82.68
2023-01-25T20:46:40.317Z,82.86
2023-01-25T20:49:07.485Z,83.06
2023-01-25T20:51:34.054Z,83.47
2023-01-25T20:54:00.583Z,83.32
2023-01-25T20:56:27.161Z,83.28
2023-01-25T20:58:53.813Z,83.29
2023-01-25T21:01:24.184Z,83.55
2023-01-25T21:03:50.804Z,83.53
2023-01-25T21:06:17.392Z,83.48
2023-01-25T21:08:43.886Z,83.59
2023-01-25T21:11:11.326Z,82.92
2023-01-25T21:13:37.774Z,83.55
2023-01-25T21:16:10.206Z,83.42
2023-01-25T21:18:37.483Z,83.24
2023-01-25T21:21:08.183Z,83.44
2023-01-25T21:23:34.983Z,83.64
2023-01-25T21:26:02.033Z,83.77
2023-01-25T21:28:28.849Z,83.68
2023-01-25T21:30:55.545Z,83.38
2023-01-25T21:33:22.108Z,83.80
2023-01-25T21:35:53.934Z,83.55
2023-01-25T21:38:20.722Z,83.70
2023-01-25T21:40:47.233Z,83.74
2023-01-25T21:43:13.757Z,83.66
2023-01-25T21:45:58.937Z,83.61
2023-01-25T21:48:44.269Z,83.54
2023-01-25T21:51:30.005Z,83.61
2023-01-25T21:53:56.548Z,83.45
2023-01-25T21:56:23.033Z,83.30
2023-01-25T21:58:49.587Z,83.27
2023-01-25T22:01:16.164Z,83.30
2023-01-25T22:03:42.670Z,83.41
2023-01-25T22:06:09.158Z,83.44
2023-01-25T22:08:35.723Z,84.16
2023-01-25T22:11:03.001Z,83.40
2023-01-25T22:13:30.861Z,83.32
2023-01-25T22:16:00.689Z,83.62
2023-01-25T22:18:27.702Z,83.86
2023-01-25T22:20:58.261Z,83.58
2023-01-25T22:23:25.037Z,83.37
2023-01-25T22:26:00.037Z,83.79
2023-01-25T22:28:26.795Z,83.45
2023-01-25T22:30:53.416Z,84.01
2023-01-25T22:33:21.553Z,83.88
2023-01-25T22:35:48.247Z,83.95
2023-01-25T22:38:14.735Z,84.29
2023-01-25T22:40:41.285Z,84.12
2023-01-25T22:43:07.820Z,84.12
2023-01-25T22:45:34.266Z,83.91
2023-01-25T22:48:00.711Z,84.01
2023-01-25T22:50:27.206Z,83.86
2023-01-25T22:52:53.645Z,83.79
2023-01-25T22:55:20.233Z,83.94
2023-01-25T22:57:46.749Z,83.91
2023-01-25T23:00:14.047Z,83.95
2023-01-25T23:02:40.555Z,83.81
2023-01-25T23:05:09.377Z,83.68
2023-01-25T23:07:35.818Z,83.43
2023-01-25T23:10:02.470Z,83.75
2023-01-25T23:12:28.940Z,83.73
2023-01-25T23:14:59.101Z,83.71
2023-01-25T23:17:44.259Z,84.06
2023-01-25T23:20:11.443Z,84.33
2023-01-25T23:22:38.153Z,83.81
2023-01-25T23:25:04.954Z,83.85
2023-01-25T23:27:31.402Z,83.89
2023-01-25T23:29:57.848Z,83.84
2023-01-25T23:32:24.371Z,83.94
2023-01-25T23:34:53.354Z,83.71
2023-01-25T23:37:21.113Z,83.77
2023-01-25T23:39:48.087Z,84.01
2023-01-25T23:42:18.873Z,83.73
2023-01-25T23:44:45.323Z,83.36
2023-01-25T23:47:11.861Z,83.65
2023-01-25T23:49:38.306Z,83.55
2023-01-25T23:52:04.843Z,83.47
2023-01-25T23:54:31.318Z,83.48
2023-01-25T23:56:57.746Z,83.62
2023-01-25T23:59:24.179Z,83.43
